createdAt,value
2022-10-31T00:03:03.853Z,46.1
2022-10-31T00:08:04.128Z,44.9
2022-10-31T00:13:04.019Z,49.6
2022-10-31T00:18:03.896Z,51.4
2022-10-31T00:23:03.892Z,45.7
2022-10-31T00:28:04.691Z,48.3
2022-10-31T00:33:03.984Z,60.8
2022-10-31T00:38:03.633Z,51.2
2022-10-31T00:43:04.238Z,55.9
2022-10-31T00:48:03.751Z,53.2
2022-10-31T00:53:03.755Z,53.0
2022-10-31T00:58:03.972Z,58.3
2022-10-31T01:03:03.815Z,54.3
2022-10-31T01:08:04.431Z,54.7
2022-10-31T01:13:04.406Z,52.3
2022-10-31T01:18:03.620Z,57.3
2022-10-31T01:23:04.759Z,54.6
2022-10-31T01:28:04.165Z,53.3
2022-10-31T01:33:03.681Z,52.6
2022-10-31T01:38:03.715Z,50.9
2022-10-31T01:43:03.834Z,52.1
2022-10-31T01:48:05.393Z,51.0
2022-10-31T01:53:03.560Z,50.0
2022-10-31T01:58:03.995Z,49.8
2022-10-31T02:03:04.032Z,53.7
2022-10-31T02:08:04.054Z,53.4
2022-10-31T02:13:05.121Z,47.4
2022-10-31T02:18:04.217Z,51.6
2022-10-31T02:23:03.450Z,57.7
2022-10-31T02:28:04.122Z,59.8
2022-10-31T02:33:03.821Z,57.8
2022-10-31T02:38:03.672Z,49.9
2022-10-31T02:43:04.319Z,48.8
2022-10-31T02:48:03.489Z,44.2
2022-10-31T02:53:03.478Z,46.8
2022-10-31T02:58:04.091Z,43.7
2022-10-31T03:03:03.826Z,43.2
2022-10-31T03:08:03.513Z,48.2
2022-10-31T03:13:03.747Z,40.1
2022-10-31T03:18:03.963Z,38.5
2022-10-31T03:23:03.450Z,36.9
2022-10-31T03:28:04.513Z,35.3
2022-10-31T03:33:04.033Z,51.0
2022-10-31T03:38:05.548Z,47.3
2022-10-31T03:43:03.699Z,46.1
2022-10-31T03:48:03.755Z,45.4
2022-10-31T03:53:03.371Z,40.6
2022-10-31T03:58:04.088Z,39.7
2022-10-31T04:03:03.661Z,43.1
2022-10-31T04:08:03.323Z,44.9
2022-10-31T04:13:03.714Z,40.1
2022-10-31T04:18:03.553Z,39.5
2022-10-31T04:23:03.276Z,47.9
2022-10-31T04:28:03.937Z,45.9
2022-10-31T04:33:03.725Z,46.3
2022-10-31T04:38:03.242Z,41.0
2022-10-31T04:43:03.827Z,38.2
2022-10-31T04:48:03.637Z,39.2
2022-10-31T04:53:03.525Z,39.7
2022-10-31T04:58:03.570Z,46.5
2022-10-31T05:03:03.509Z,44.9
2022-10-31T05:08:03.224Z,40.2
2022-10-31T05:13:03.856Z,39.8
2022-10-31T05:18:03.632Z,42.1
2022-10-31T05:23:03.210Z,44.7
2022-10-31T05:28:03.853Z,42.4
2022-10-31T05:33:03.465Z,39.6
2022-10-31T05:38:03.574Z,46.0
2022-10-31T05:43:03.631Z,48.9
2022-10-31T05:48:03.784Z,45.9
2022-10-31T05:53:03.117Z,42.3
2022-10-31T05:58:04.327Z,47.6
2022-10-31T06:03:03.806Z,42.3
2022-10-31T06:08:03.735Z,43.1
2022-10-31T06:13:03.126Z,44.1
2022-10-31T06:18:03.793Z,43.3
2022-10-31T06:23:03.737Z,40.7
2022-10-31T06:28:03.329Z,48.0
2022-10-31T06:33:03.363Z,41.3
2022-10-31T06:38:03.439Z,51.3
2022-10-31T06:43:03.046Z,40.9
2022-10-31T06:48:16.740Z,47.4
2022-10-31T06:53:03.131Z,43.2
2022-10-31T06:58:03.634Z,43.2
2022-10-31T07:03:03.254Z,45.1
2022-10-31T07:08:03.248Z,51.1
2022-10-31T07:13:03.307Z,55.2
2022-10-31T07:18:03.412Z,50.3
2022-10-31T07:23:03.469Z,47.9
2022-10-31T07:28:03.634Z,45.0
2022-10-31T07:33:03.003Z,47.8
2022-10-31T07:38:03.351Z,48.2
2022-10-31T07:43:03.190Z,44.6
2022-10-31T07:48:03.231Z,56.7
2022-10-31T07:53:02.970Z,46.4
2022-10-31T07:58:03.478Z,44.1
2022-10-31T08:03:03.280Z,45.0
2022-10-31T08:08:03.565Z,49.8
2022-10-31T08:13:03.117Z,51.7
2022-10-31T08:18:02.996Z,52.2
2022-10-31T08:23:03.244Z,56.4
2022-10-31T08:28:03.340Z,50.2
2022-10-31T08:33:03.913Z,52.0
2022-10-31T08:38:03.241Z,50.6
2022-10-31T08:43:02.856Z,48.2
2022-10-31T08:48:03.254Z,48.8
2022-10-31T08:53:05.601Z,52.4
2022-10-31T08:58:03.051Z,50.7
2022-10-31T09:03:02.827Z,45.2
2022-10-31T09:08:03.223Z,51.9
2022-10-31T09:13:02.794Z,43.3
2022-10-31T09:18:03.011Z,48.7
2022-10-31T09:23:02.955Z,44.7
2022-10-31T09:28:03.201Z,43.3
2022-10-31T09:33:02.778Z,46.6
2022-10-31T09:38:03.198Z,42.9
2022-10-31T09:43:02.744Z,41.7
2022-10-31T09:48:03.256Z,43.0
2022-10-31T09:53:03.219Z,43.0
2022-10-31T09:58:02.729Z,40.5
2022-10-31T10:03:02.989Z,37.5
2022-10-31T10:08:02.900Z,40.5
2022-10-31T10:13:04.989Z,38.3
2022-10-31T10:18:02.672Z,34.3
2022-10-31T10:23:03.299Z,33.4
2022-10-31T10:28:03.108Z,36.0
2022-10-31T10:33:02.711Z,30.1
2022-10-31T10:38:03.837Z,28.1
2022-10-31T10:43:02.841Z,25.3
2022-10-31T10:48:03.018Z,16.8
2022-10-31T10:53:03.107Z,19.9
2022-10-31T10:58:03.174Z,17.9
2022-10-31T11:03:03.111Z,13.3
2022-10-31T11:08:03.008Z,17.4
2022-10-31T11:13:02.899Z,16.9
2022-10-31T11:18:02.672Z,15.4
2022-10-31T11:23:02.785Z,15.3
2022-10-31T11:28:02.740Z,20.8
2022-10-31T11:33:02.919Z,19.7
2022-10-31T11:38:03.337Z,15.5
2022-10-31T11:43:02.711Z,16.7
2022-10-31T11:48:02.971Z,15.9
2022-10-31T11:53:02.506Z,17.8
2022-10-31T11:58:02.852Z,15.4
2022-10-31T12:03:02.939Z,16.2
2022-10-31T12:08:04.561Z,17.7
2022-10-31T12:13:02.705Z,13.9
2022-10-31T12:18:02.529Z,15.6
2022-10-31T12:23:03.084Z,19.0
2022-10-31T12:28:02.448Z,18.2
2022-10-31T12:33:02.846Z,14.6
2022-10-31T12:38:03.134Z,13.7
2022-10-31T12:43:03.010Z,13.5
2022-10-31T12:48:02.441Z,15.5
2022-10-31T12:53:03.140Z,15.0
2022-10-31T12:58:03.083Z,17.3
2022-10-31T13:03:02.479Z,12.7
2022-10-31T13:08:03.838Z,13.4
2022-10-31T13:13:03.002Z,12.5
2022-10-31T13:18:02.555Z,14.3
2022-10-31T13:23:02.685Z,17.0
2022-10-31T13:28:02.434Z,18.4
2022-10-31T13:33:02.888Z,15.9
2022-10-31T13:38:02.623Z,14.5
2022-10-31T13:43:02.811Z,13.6
2022-10-31T13:48:02.879Z,17.6
2022-10-31T13:53:02.726Z,13.3
2022-10-31T13:58:03.106Z,19.4
2022-10-31T14:03:02.448Z,17.0
2022-10-31T14:08:02.774Z,20.1
2022-10-31T14:13:02.357Z,18.5
2022-10-31T14:18:03.206Z,22.9
2022-10-31T14:23:02.885Z,14.7
2022-10-31T14:28:02.680Z,22.1
2022-10-31T14:33:02.341Z,15.4
2022-10-31T14:38:02.792Z,40.9
2022-10-31T14:43:02.840Z,37.8
2022-10-31T14:48:06.831Z,42.0
2022-10-31T14:53:03.565Z,42.5
2022-10-31T14:58:03.239Z,196.4
2022-10-31T15:03:02.790Z,141.2
2022-10-31T15:08:02.442Z,63.5
2022-10-31T15:13:02.738Z,42.1
2022-10-31T15:18:02.764Z,30.7
2022-10-31T15:23:02.324Z,29.4
2022-10-31T15:28:02.995Z,25.9
2022-10-31T15:33:02.337Z,23.1
2022-10-31T15:38:02.862Z,24.7
2022-10-31T15:43:02.388Z,21.1
2022-10-31T15:48:02.665Z,22.9
2022-10-31T15:53:02.565Z,30.8
2022-10-31T15:58:02.352Z,31.0
2022-10-31T16:03:02.476Z,32.7
2022-10-31T16:08:02.280Z,30.2
2022-10-31T16:13:02.641Z,26.8
2022-10-31T16:18:02.167Z,25.2
2022-10-31T16:23:02.534Z,29.7
2022-10-31T16:28:02.327Z,24.5
2022-10-31T16:33:02.640Z,23.9
2022-10-31T16:38:02.160Z,25.6
2022-10-31T16:43:02.875Z,29.2
2022-10-31T16:48:02.491Z,25.6
2022-10-31T16:53:14.721Z,22.8
2022-10-31T16:58:02.617Z,22.3
2022-10-31T17:03:02.198Z,22.4
2022-10-31T17:08:02.450Z,24.3
2022-10-31T17:13:02.023Z,24.8
2022-10-31T17:18:02.413Z,29.7
2022-10-31T17:23:02.265Z,27.8
2022-10-31T17:28:02.182Z,31.6
2022-10-31T17:33:02.383Z,25.3
2022-10-31T17:38:02.034Z,32.6
2022-10-31T17:43:02.378Z,34.5
2022-10-31T17:48:02.690Z,27.4
2022-10-31T17:53:02.945Z,59.7
2022-10-31T17:58:02.339Z,73.2
2022-10-31T18:03:02.760Z,53.6
2022-10-31T18:08:04.012Z,66.0
2022-10-31T18:13:02.193Z,55.2
2022-10-31T18:18:02.595Z,47.1
2022-10-31T18:23:01.959Z,42.8
2022-10-31T18:28:02.170Z,35.0
2022-10-31T18:33:01.995Z,48.4
2022-10-31T18:38:03.330Z,40.8
2022-10-31T18:43:02.890Z,41.8
2022-10-31T18:48:02.790Z,36.8
2022-10-31T18:53:02.338Z,38.0
2022-10-31T18:58:02.032Z,36.8
2022-10-31T19:03:02.598Z,38.8
2022-10-31T19:08:01.895Z,65.5
2022-10-31T19:13:02.215Z,78.0
2022-10-31T19:18:02.240Z,78.6
2022-10-31T19:23:02.509Z,72.4
2022-10-31T19:28:02.226Z,71.4
2022-10-31T19:33:01.852Z,76.5
2022-10-31T19:38:02.469Z,82.0
2022-10-31T19:43:02.012Z,83.3
2022-10-31T19:48:02.087Z,68.9
2022-10-31T19:53:01.820Z,62.8
2022-10-31T19:58:02.499Z,61.9
2022-10-31T20:03:02.199Z,59.9
2022-10-31T20:08:06.412Z,57.6
2022-10-31T20:13:02.046Z,50.9
2022-10-31T20:18:01.789Z,56.6
2022-10-31T20:23:02.408Z,58.0
2022-10-31T20:28:02.017Z,45.7
2022-10-31T20:33:01.932Z,43.1
2022-10-31T20:38:02.278Z,59.6
2022-10-31T20:43:01.767Z,58.8
2022-10-31T20:48:02.076Z,70.9
2022-10-31T20:53:02.237Z,82.3
2022-10-31T20:58:01.794Z,69.4
2022-10-31T21:03:01.942Z,72.3
2022-10-31T21:08:01.891Z,71.8
2022-10-31T21:13:03.431Z,84.2
2022-10-31T21:18:01.765Z,171.2
2022-10-31T21:23:03.080Z,89.0
2022-10-31T21:28:02.804Z,122.6
2022-10-31T21:33:02.434Z,105.5
2022-10-31T21:38:02.646Z,213.2
2022-10-31T21:43:02.732Z,141.8
2022-10-31T21:48:02.381Z,132.9
2022-10-31T21:53:02.743Z,131.8
2022-10-31T21:58:02.598Z,107.9
2022-10-31T22:03:01.626Z,106.6
2022-10-31T22:08:02.087Z,72.9
2022-10-31T22:13:01.725Z,82.0
2022-10-31T22:18:01.963Z,58.4
2022-10-31T22:23:01.622Z,63.5
2022-10-31T22:28:01.720Z,55.0
2022-10-31T22:33:01.850Z,52.2
2022-10-31T22:38:01.624Z,58.9
2022-10-31T22:43:02.147Z,81.3
2022-10-31T22:48:01.755Z,70.1
2022-10-31T22:53:01.553Z,81.9
2022-10-31T22:58:02.125Z,79.6
2022-10-31T23:03:01.433Z,87.4
2022-10-31T23:08:01.748Z,79.5
2022-10-31T23:13:01.556Z,67.0
2022-10-31T23:18:01.670Z,67.4
2022-10-31T23:23:01.733Z,56.4
2022-10-31T23:28:01.669Z,49.8
2022-10-31T23:33:01.847Z,53.4
2022-10-31T23:38:01.900Z,51.1
2022-10-31T23:43:01.841Z,49.7
2022-10-31T23:48:01.650Z,52.5
2022-10-31T23:53:01.398Z,46.6
2022-10-31T23:58:01.741Z,48.1
